Time;durP1;ratioP1;P1;durP2;ratioP2;P2;SDS_P1;SDS_P2;PMS_P1;PMS_P2;Temp;Humidity;BMP_temperature;BMP_pressure;BME280_temperature;BME280_humidity;BME280_pressure;Samples;Min_cycle;Max_cycle;Signal;HPM_P1;HPM_P2
2023/01/07 00:02:23;;;;;;;1.70;1.60;;;10.50;1.00;;;;;;5114460;27;20505;-83
2023/01/07 00:04:51;;;;;;;1.87;1.77;;;10.50;1.00;;;;;;5122045;27;20563;-83
2023/01/07 00:07:19;;;;;;;3.00;2.13;;;10.50;1.00;;;;;;5095682;27;20475;-83
2023/01/07 00:09:47;;;;;;;2.33;2.23;;;10.50;1.00;;;;;;5116719;27;20451;-83
2023/01/07 00:12:15;;;;;;;2.10;2.00;;;10.50;1.00;;;;;;5111931;27;20550;-83
2023/01/07 00:14:43;;;;;;;2.13;2.03;;;10.60;1.00;;;;;;5110344;27;21246;-83
2023/01/07 00:17:13;;;;;;;2.00;1.80;;;10.50;99.90;;;;;;5112764;27;20456;-84
2023/01/07 00:19:41;;;;;;;2.03;1.93;;;10.60;1.00;;;;;;5117114;27;20452;-83
2023/01/07 00:22:09;;;;;;;2.00;1.90;;;10.60;94.30;;;;;;5110145;27;20570;-83
2023/01/07 00:24:37;;;;;;;2.43;2.30;;;10.60;99.90;;;;;;5114356;27;20553;-82
2023/01/07 00:27:05;;;;;;;2.20;2.10;;;10.50;99.90;;;;;;5107964;27;20472;-83
2023/01/07 00:29:33;;;;;;;2.10;2.00;;;10.50;99.90;;;;;;5115947;27;20510;-83
2023/01/07 00:32:02;;;;;;;2.30;2.10;;;10.50;99.90;;;;;;5118987;27;20487;-83
2023/01/07 00:34:31;;;;;;;2.20;2.10;;;10.50;99.90;;;;;;5114895;27;20538;-82
2023/01/07 00:39:41;;;;;;;2.50;2.30;;;10.50;1.00;;;;;;5106071;27;20457;-83
2023/01/07 00:44:55;;;;;;;2.60;2.50;;;10.50;1.00;;;;;;5100768;27;20522;-83
2023/01/07 00:47:23;;;;;;;2.80;2.60;;;10.50;1.00;;;;;;5111456;27;20562;-83
2023/01/07 00:49:52;;;;;;;2.30;2.20;;;10.50;1.00;;;;;;5105498;28;20453;-83
2023/01/07 00:52:21;;;;;;;2.30;2.20;;;10.50;1.00;;;;;;5105301;27;20449;-82
2023/01/07 00:54:49;;;;;;;2.40;2.30;;;10.40;1.00;;;;;;5105740;28;20476;-83
2023/01/07 00:57:17;;;;;;;2.27;2.10;;;10.50;1.00;;;;;;5109693;27;20546;-82
2023/01/07 00:59:45;;;;;;;2.30;2.10;;;10.50;99.90;;;;;;5115401;28;20467;-82
2023/01/07 01:02:13;;;;;;;3.27;2.40;;;10.40;99.90;;;;;;5113918;28;20467;-82
2023/01/07 01:04:41;;;;;;;2.13;2.03;;;10.40;1.00;;;;;;5114028;28;20904;-83
2023/01/07 01:07:10;;;;;;;2.53;2.37;;;10.40;1.00;;;;;;5109340;28;20547;-83
2023/01/07 01:09:38;;;;;;;1.90;1.80;;;10.40;99.90;;;;;;5109726;28;20448;-83
2023/01/07 01:12:07;;;;;;;1.90;1.80;;;10.40;1.00;;;;;;5112813;28;20449;-83
2023/01/07 01:14:35;;;;;;;1.90;1.80;;;10.40;99.90;;;;;;5095037;28;20503;-83
2023/01/07 01:17:03;;;;;;;2.00;1.90;;;10.40;95.60;;;;;;5111844;28;20456;-83
2023/01/07 01:19:31;;;;;;;1.80;1.70;;;10.40;99.90;;;;;;5114854;28;20506;-83
2023/01/07 01:21:59;;;;;;;2.37;1.80;;;10.40;99.90;;;;;;5118222;28;20445;-83
2023/01/07 01:24:29;;;;;;;1.80;1.70;;;10.40;22.50;;;;;;5113088;28;20559;-83
2023/01/07 01:26:57;;;;;;;1.80;1.70;;;10.50;1.00;;;;;;5119755;28;20521;-82
2023/01/07 01:29:25;;;;;;;1.57;1.47;;;10.40;1.00;;;;;;5115279;28;20460;-82
2023/01/07 01:31:53;;;;;;;2.10;1.70;;;10.40;1.00;;;;;;5119058;28;20490;-82
2023/01/07 01:34:21;;;;;;;1.93;1.83;;;10.40;1.00;;;;;;5118838;28;21131;-83
2023/01/07 01:36:50;;;;;;;1.70;1.60;;;10.40;99.90;;;;;;5113485;28;20441;-81
2023/01/07 01:39:19;;;;;;;1.23;1.23;;;10.40;99.90;;;;;;5118510;28;20831;-81
2023/01/07 01:41:48;;;;;;;1.53;1.43;;;10.40;99.90;;;;;;5116043;28;20845;-81
2023/01/07 01:44:41;;;;;;;1.50;1.40;;;10.40;99.90;;;;;;5122812;28;20468;-82
2023/01/07 01:47:16;;;;;;;2.77;1.43;;;10.30;99.90;;;;;;5115620;28;20480;-82
2023/01/07 01:49:49;;;;;;;1.30;1.30;;;10.40;1.00;;;;;;5115855;28;20507;-82
2023/01/07 01:52:21;;;;;;;1.40;1.37;;;10.40;1.00;;;;;;5112686;28;21129;-82
2023/01/07 01:54:52;;;;;;;1.23;1.23;;;10.40;1.00;;;;;;5110974;28;20536;-82
2023/01/07 01:57:23;;;;;;;1.47;1.37;;;10.30;1.00;;;;;;5115618;27;20460;-82
2023/01/07 01:59:52;;;;;;;1.27;1.17;;;10.40;1.00;;;;;;5116662;27;20455;-82
2023/01/07 02:02:24;;;;;;;1.50;1.40;;;10.40;1.00;;;;;;5116971;27;20451;-82
2023/01/07 02:04:53;;;;;;;1.40;1.40;;;10.40;1.00;;;;;;5118759;27;20481;-83
2023/01/07 02:07:22;;;;;;;1.43;1.37;;;10.30;1.00;;;;;;5113083;27;20481;-82
2023/01/07 02:09:58;;;;;;;1.20;1.20;;;10.30;99.90;;;;;;5114325;27;20746;-82
2023/01/07 02:12:43;;;;;;;1.50;1.40;;;10.30;99.90;;;;;;5121610;27;21293;-82
2023/01/07 02:15:13;;;;;;;1.30;1.30;;;10.30;99.90;;;;;;5122114;27;20531;-83
2023/01/07 02:17:55;;;;;;;1.10;1.10;;;10.30;99.90;;;;;;5115168;27;20457;-83
2023/01/07 02:20:54;;;;;;;1.40;1.30;;;10.40;99.90;;;;;;5120265;27;20986;-82
2023/01/07 02:23:52;;;;;;;1.20;1.20;;;10.30;99.90;;;;;;5102896;27;20986;-81
2023/01/07 02:26:59;;;;;;;1.30;1.30;;;10.40;99.90;;;;;;5113712;27;20591;-82
2023/01/07 02:30:01;;;;;;;1.10;1.10;;;10.30;99.90;;;;;;5117612;27;20529;-82
2023/01/07 02:32:42;;;;;;;1.20;1.20;;;10.30;99.90;;;;;;5120204;27;20448;-82
2023/01/07 02:35:23;;;;;;;1.17;1.17;;;10.30;99.90;;;;;;5120067;27;20467;-83
2023/01/07 02:38:00;;;;;;;1.43;1.20;;;10.40;99.90;;;;;;5117777;27;20480;-83
2023/01/07 02:40:36;;;;;;;1.30;1.20;;;10.40;99.90;;;;;;5119045;27;20497;-83
2023/01/07 02:43:14;;;;;;;1.20;1.20;;;10.30;99.90;;;;;;5118162;27;20570;-82
2023/01/07 02:45:48;;;;;;;1.13;1.13;;;10.30;99.90;;;;;;5116806;27;20825;-81
2023/01/07 02:48:20;;;;;;;1.30;1.30;;;10.30;99.90;;;;;;5121836;27;20508;-81
2023/01/07 02:50:49;;;;;;;1.20;1.20;;;10.30;99.90;;;;;;5121874;27;20452;-82
2023/01/07 02:53:19;;;;;;;1.50;1.40;;;10.30;99.90;;;;;;5121092;27;20497;-82
2023/01/07 02:56:02;;;;;;;1.20;1.20;;;10.30;99.90;;;;;;5120266;27;20501;-82
2023/01/07 02:58:57;;;;;;;1.50;1.40;;;10.30;99.90;;;;;;5116544;27;21001;-81
2023/01/07 03:01:44;;;;;;;1.10;1.10;;;10.30;99.90;;;;;;5120797;27;20509;-82
2023/01/07 03:04:28;;;;;;;1.10;1.10;;;10.30;99.90;;;;;;5122219;27;20452;-82
2023/01/07 03:07:17;;;;;;;1.27;1.27;;;10.20;99.90;;;;;;5101410;27;20457;-82
2023/01/07 03:09:55;;;;;;;1.20;1.20;;;10.20;99.90;;;;;;5083731;27;20819;-82
2023/01/07 03:12:32;;;;;;;1.10;1.10;;;10.20;99.90;;;;;;5117302;27;20478;-80
2023/01/07 03:15:09;;;;;;;1.30;1.30;;;10.20;99.90;;;;;;5118074;27;20490;-83
2023/01/07 03:17:42;;;;;;;1.50;1.40;;;10.20;99.90;;;;;;5118564;27;20551;-83
2023/01/07 03:20:13;;;;;;;1.50;1.40;;;10.20;99.90;;;;;;5115622;27;20452;-83
2023/01/07 03:22:43;;;;;;;1.30;1.30;;;10.20;99.90;;;;;;5120259;27;20454;-83
2023/01/07 03:25:13;;;;;;;1.47;1.40;;;10.20;99.90;;;;;;5120028;27;20487;-82
2023/01/07 03:27:43;;;;;;;1.17;1.17;;;10.20;99.90;;;;;;5118443;27;20960;-82
2023/01/07 03:30:16;;;;;;;1.47;1.37;;;10.20;99.90;;;;;;5124401;27;20447;-82
2023/01/07 03:32:49;;;;;;;1.30;1.30;;;10.10;99.90;;;;;;5114990;27;20441;-82
2023/01/07 03:35:21;;;;;;;1.20;1.20;;;10.20;85.20;;;;;;5117076;27;20483;-82
2023/01/07 03:37:51;;;;;;;1.37;1.37;;;10.20;96.80;;;;;;5113601;27;20512;-82
2023/01/07 03:40:20;;;;;;;1.70;1.60;;;10.20;99.90;;;;;;5112244;27;20564;-82
2023/01/07 03:42:48;;;;;;;1.40;1.30;;;10.20;99.90;;;;;;5109543;27;20521;-82
2023/01/07 03:45:18;;;;;;;1.60;1.50;;;10.20;99.90;;;;;;5111467;27;20464;-81
2023/01/07 03:47:49;;;;;;;1.40;1.30;;;10.20;99.90;;;;;;5114157;27;20948;-82
2023/01/07 03:50:19;;;;;;;1.30;1.30;;;10.20;99.90;;;;;;5119640;27;20445;-81
2023/01/07 03:52:48;;;;;;;1.60;1.50;;;10.20;99.90;;;;;;5119087;27;20512;-82
2023/01/07 03:55:16;;;;;;;1.40;1.40;;;10.10;99.90;;;;;;5115294;27;21146;-82
2023/01/07 03:57:44;;;;;;;2.27;1.40;;;10.30;99.90;;;;;;5119570;27;20525;-81
2023/01/07 04:00:14;;;;;;;1.40;1.40;;;10.10;99.90;;;;;;5109039;27;20547;-82
2023/01/07 04:02:43;;;;;;;1.50;1.40;;;10.10;99.90;;;;;;5114268;27;21089;-80
2023/01/07 04:05:11;;;;;;;1.30;1.30;;;10.10;99.90;;;;;;5106633;27;20470;-81
2023/01/07 04:07:41;;;;;;;1.57;1.40;;;10.10;99.90;;;;;;5117792;27;20445;-82
2023/01/07 04:10:10;;;;;;;1.40;1.30;;;10.10;99.90;;;;;;5109034;27;20560;-82
2023/01/07 04:12:38;;;;;;;1.30;1.20;;;10.10;99.90;;;;;;5110397;27;21857;-82
2023/01/07 04:15:07;;;;;;;1.50;1.40;;;10.10;99.90;;;;;;5108876;27;20781;-81
2023/01/07 04:17:35;;;;;;;1.27;1.27;;;10.00;99.90;;;;;;5116825;27;20489;-81
2023/01/07 04:20:06;;;;;;;1.40;1.40;;;10.10;99.90;;;;;;5110471;27;20459;-81
2023/01/07 04:22:34;;;;;;;1.20;1.20;;;10.10;99.90;;;;;;5097836;27;20436;-82
2023/01/07 04:25:04;;;;;;;1.50;1.40;;;10.10;99.90;;;;;;5113224;27;20467;-81
2023/01/07 04:27:32;;;;;;;1.33;1.30;;;10.10;99.90;;;;;;5114320;27;20444;-82
2023/01/07 04:30:00;;;;;;;1.10;1.10;;;10.10;99.90;;;;;;5091906;28;20624;-82
2023/01/07 04:32:28;;;;;;;1.20;1.10;;;10.00;99.90;;;;;;5113849;27;20459;-83
2023/01/07 04:34:57;;;;;;;1.17;1.17;;;10.10;99.90;;;;;;5114831;27;20525;-82
2023/01/07 04:37:25;;;;;;;1.30;1.30;;;10.10;99.90;;;;;;5118768;27;20457;-81
2023/01/07 04:39:53;;;;;;;1.23;1.23;;;10.10;99.90;;;;;;5116033;27;20439;-82
2023/01/07 04:42:23;;;;;;;1.13;1.10;;;10.10;99.90;;;;;;5093062;28;20472;-82
2023/01/07 04:44:52;;;;;;;1.30;1.30;;;10.10;99.90;;;;;;5107184;27;20464;-83
2023/01/07 04:47:20;;;;;;;1.43;1.33;;;10.00;99.90;;;;;;5109233;27;20536;-81
2023/01/07 04:49:48;;;;;;;1.30;1.30;;;10.00;99.90;;;;;;5106936;27;20557;-83
2023/01/07 04:52:16;;;;;;;1.73;1.60;;;10.00;99.90;;;;;;5107721;28;20457;-82
2023/01/07 04:54:44;;;;;;;1.33;1.33;;;10.10;99.90;;;;;;5108032;28;20512;-82
2023/01/07 04:57:13;;;;;;;1.30;1.30;;;10.00;99.90;;;;;;5115410;27;20448;-82
2023/01/07 04:59:42;;;;;;;1.63;1.53;;;10.00;99.90;;;;;;5114162;28;20437;-82
2023/01/07 05:02:10;;;;;;;1.57;1.47;;;10.00;99.90;;;;;;5107810;28;21104;-82
2023/01/07 05:04:38;;;;;;;1.50;1.40;;;10.00;99.90;;;;;;5111262;28;20496;-83
2023/01/07 05:07:07;;;;;;;1.90;1.53;;;10.00;99.90;;;;;;5113319;28;20531;-82
2023/01/07 05:09:35;;;;;;;1.30;1.30;;;10.00;99.90;;;;;;5099815;28;20469;-82
2023/01/07 05:12:04;;;;;;;1.60;1.50;;;10.00;99.90;;;;;;5108962;28;20487;-82
2023/01/07 05:14:32;;;;;;;1.60;1.30;;;10.00;99.90;;;;;;5110962;28;20487;-82
2023/01/07 05:17:01;;;;;;;1.30;1.30;;;10.00;99.90;;;;;;5091521;28;20448;-82
2023/01/07 05:19:29;;;;;;;1.40;1.30;;;10.00;99.90;;;;;;5111825;28;20544;-82
2023/01/07 05:21:58;;;;;;;1.30;1.30;;;9.90;99.90;;;;;;5105511;28;20462;-83
2023/01/07 05:24:28;;;;;;;1.20;1.20;;;10.00;99.90;;;;;;5113913;28;21046;-81
2023/01/07 05:26:56;;;;;;;1.40;1.30;;;10.00;99.90;;;;;;5111104;28;20464;-83
2023/01/07 05:29:24;;;;;;;1.20;1.20;;;10.00;99.90;;;;;;5115543;28;20495;-82
2023/01/07 05:31:52;;;;;;;1.60;1.50;;;9.90;99.90;;;;;;5111257;27;20460;-82
2023/01/07 05:34:22;;;;;;;1.53;1.43;;;9.90;99.90;;;;;;5117941;27;20556;-82
2023/01/07 05:36:50;;;;;;;1.63;1.53;;;9.90;99.90;;;;;;5118612;27;20450;-83
2023/01/07 05:39:18;;;;;;;1.50;1.40;;;10.00;99.90;;;;;;5099397;27;20457;-82
2023/01/07 05:41:46;;;;;;;2.30;1.30;;;10.00;99.90;;;;;;5119274;27;20447;-82
2023/01/07 05:44:15;;;;;;;1.73;1.60;;;10.10;99.90;;;;;;5111306;27;20451;-82
2023/01/07 05:46:43;;;;;;;1.77;1.67;;;9.90;99.90;;;;;;5109664;27;20450;-81
2023/01/07 05:49:12;;;;;;;1.50;1.40;;;10.00;99.90;;;;;;5119376;27;20473;-82
2023/01/07 05:51:41;;;;;;;1.50;1.40;;;10.00;99.90;;;;;;5117736;27;20531;-83
2023/01/07 05:54:09;;;;;;;1.47;1.37;;;9.90;99.90;;;;;;5111627;27;20468;-80
2023/01/07 05:56:37;;;;;;;1.40;1.30;;;9.90;99.90;;;;;;5091860;27;20440;-82
2023/01/07 05:59:05;;;;;;;1.30;1.23;;;9.90;99.90;;;;;;5118463;27;20788;-82
2023/01/07 06:01:33;;;;;;;1.53;1.20;;;9.90;99.90;;;;;;5118936;27;20483;-83
2023/01/07 06:04:01;;;;;;;1.63;1.30;;;9.90;99.90;;;;;;5118946;27;20471;-82
2023/01/07 06:06:30;;;;;;;1.40;1.30;;;9.90;99.90;;;;;;5120785;27;20537;-82
2023/01/07 06:08:59;;;;;;;1.53;1.43;;;9.90;99.90;;;;;;5116120;27;20460;-81
2023/01/07 06:11:27;;;;;;;1.40;1.30;;;9.90;99.90;;;;;;5116593;27;20452;-82
2023/01/07 06:13:55;;;;;;;1.50;1.40;;;9.80;99.90;;;;;;5112230;27;20456;-82
2023/01/07 06:16:23;;;;;;;1.37;1.27;;;9.80;99.90;;;;;;5114285;27;20542;-83
2023/01/07 06:18:51;;;;;;;1.20;1.20;;;9.70;99.90;;;;;;5111144;27;20812;-83
2023/01/07 06:21:20;;;;;;;1.23;1.23;;;9.80;99.90;;;;;;5117866;27;22287;-83
2023/01/07 06:23:48;;;;;;;1.20;1.20;;;9.70;99.90;;;;;;5112402;27;20452;-82
2023/01/07 06:26:17;;;;;;;1.53;1.43;;;9.60;99.90;;;;;;5112794;27;20483;-80
2023/01/07 06:28:46;;;;;;;1.33;1.33;;;9.70;99.90;;;;;;5115294;27;20452;-82
2023/01/07 06:31:14;;;;;;;1.50;1.40;;;9.70;99.90;;;;;;5105340;27;20511;-80
2023/01/07 06:33:42;;;;;;;1.60;1.50;;;9.70;99.90;;;;;;5114983;27;20453;-83
2023/01/07 06:36:10;;;;;;;1.50;1.40;;;9.70;99.90;;;;;;5116846;27;20476;-80
2023/01/07 06:38:40;;;;;;;1.40;1.40;;;9.70;99.90;;;;;;5085001;27;20533;-79
2023/01/07 06:41:08;;;;;;;1.67;1.60;;;9.60;99.90;;;;;;5112017;27;20460;-82
2023/01/07 06:43:37;;;;;;;1.70;1.60;;;9.60;99.90;;;;;;5112390;27;20731;-82
2023/01/07 06:46:07;;;;;;;1.50;1.50;;;9.50;99.90;;;;;;5108846;27;20901;-82
2023/01/07 06:48:35;;;;;;;1.70;1.60;;;9.50;99.90;;;;;;5112213;27;21036;-81
2023/01/07 06:51:03;;;;;;;1.40;1.30;;;9.50;99.90;;;;;;5117613;27;20477;-79
2023/01/07 06:53:32;;;;;;;1.23;1.23;;;9.50;99.90;;;;;;5115037;27;20470;-82
2023/01/07 06:56:00;;;;;;;1.20;1.20;;;9.50;99.90;;;;;;5117384;27;20481;-80
2023/01/07 06:58:28;;;;;;;2.73;1.13;;;9.40;99.90;;;;;;5121554;27;20460;-82
2023/01/07 07:01:02;;;;;;;1.50;1.40;;;9.40;99.90;;;;;;5114290;27;20505;-80
2023/01/07 07:03:30;;;;;;;1.60;1.50;;;9.40;99.90;;;;;;5121417;27;20442;-82
2023/01/07 07:05:58;;;;;;;1.20;1.20;;;9.50;99.90;;;;;;5115101;27;20469;-83
2023/01/07 07:08:27;;;;;;;1.10;1.10;;;9.60;99.90;;;;;;5116737;27;20457;-81
2023/01/07 07:10:55;;;;;;;1.30;1.30;;;9.60;99.90;;;;;;5114943;27;20508;-83
2023/01/07 07:13:23;;;;;;;1.30;1.30;;;9.60;99.90;;;;;;5112131;27;20459;-81
2023/01/07 07:15:51;;;;;;;1.33;1.20;;;9.60;99.90;;;;;;5112472;27;20552;-82
2023/01/07 07:18:21;;;;;;;1.20;1.20;;;9.60;99.90;;;;;;5110607;27;20443;-82
2023/01/07 07:20:49;;;;;;;1.40;1.30;;;9.60;99.90;;;;;;5109927;27;20449;-80
2023/01/07 07:23:18;;;;;;;1.47;1.40;;;9.60;99.90;;;;;;5091758;27;20457;-80
2023/01/07 07:25:46;;;;;;;1.30;1.20;;;9.60;99.90;;;;;;5114671;27;20511;-81
2023/01/07 07:28:14;;;;;;;1.43;1.40;;;9.70;99.90;;;;;;5115369;27;20452;-83
2023/01/07 07:30:42;;;;;;;1.20;1.20;;;9.70;99.90;;;;;;5113691;27;21012;-82
2023/01/07 07:33:17;;;;;;;1.47;1.37;;;9.70;99.90;;;;;;5111722;27;20456;-81
2023/01/07 07:35:48;;;;;;;1.57;1.47;;;9.60;99.90;;;;;;5113138;27;20563;-81
2023/01/07 07:38:16;;;;;;;1.20;1.20;;;9.60;99.90;;;;;;5114561;27;20544;-80
2023/01/07 07:40:45;;;;;;;1.40;1.30;;;9.60;99.90;;;;;;5110605;27;21023;-80
2023/01/07 07:43:13;;;;;;;1.37;1.27;;;9.60;99.90;;;;;;5106728;27;20465;-80
2023/01/07 07:45:41;;;;;;;1.10;1.10;;;9.60;99.90;;;;;;5105431;27;20476;-80
2023/01/07 07:48:12;;;;;;;1.30;1.30;;;9.60;99.90;;;;;;5100790;27;20557;-80
2023/01/07 07:50:40;;;;;;;1.23;1.17;;;9.70;99.90;;;;;;5103002;27;20534;-79
2023/01/07 07:53:10;;;;;;;1.27;1.20;;;9.70;99.90;;;;;;5073545;27;20519;-79
2023/01/07 07:55:39;;;;;;;1.53;1.43;;;9.70;99.90;;;;;;5108554;27;20530;-80
2023/01/07 07:58:07;;;;;;;1.13;1.13;;;9.70;99.90;;;;;;5109175;27;20443;-78
2023/01/07 08:00:35;;;;;;;1.30;1.30;;;9.70;99.90;;;;;;5113364;27;20439;-78
2023/01/07 08:03:04;;;;;;;1.30;1.30;;;9.70;99.90;;;;;;5106488;27;20469;-79
2023/01/07 08:05:32;;;;;;;1.50;1.40;;;9.70;99.90;;;;;;5108663;27;20995;-80
2023/01/07 08:08:00;;;;;;;1.80;1.40;;;9.60;99.90;;;;;;5110190;27;20457;-80
2023/01/07 08:10:30;;;;;;;2.77;1.50;;;9.60;99.90;;;;;;5113407;27;21087;-80
2023/01/07 08:12:59;;;;;;;1.17;1.17;;;9.60;99.90;;;;;;5112513;27;20441;-80
2023/01/07 08:15:27;;;;;;;1.23;1.23;;;9.70;99.90;;;;;;5112541;27;21119;-79
2023/01/07 08:17:59;;;;;;;1.37;1.27;;;9.60;99.90;;;;;;5107761;27;20555;-80
2023/01/07 08:20:28;;;;;;;1.60;1.50;;;9.60;99.90;;;;;;5102129;27;20449;-79
2023/01/07 08:22:58;;;;;;;1.73;1.53;;;9.70;99.90;;;;;;5097158;27;20450;-79
2023/01/07 08:25:26;;;;;;;1.33;1.33;;;9.70;99.90;;;;;;5100211;27;20478;-79
2023/01/07 08:27:57;;;;;;;1.40;1.40;;;9.70;99.90;;;;;;5096631;27;20513;-80
2023/01/07 08:30:25;;;;;;;4.20;1.60;;;9.60;99.90;;;;;;5098368;27;20441;-78
2023/01/07 08:32:54;;;;;;;1.47;1.37;;;9.70;99.90;;;;;;5100091;27;20530;-81
2023/01/07 08:35:22;;;;;;;1.97;1.83;;;9.70;99.90;;;;;;5103060;27;20475;-80
2023/01/07 08:37:51;;;;;;;1.80;1.70;;;9.70;99.90;;;;;;5082121;27;20460;-81
2023/01/07 08:40:19;;;;;;;2.07;1.97;;;9.70;99.90;;;;;;5074226;27;21760;-79
2023/01/07 08:42:47;;;;;;;1.60;1.50;;;9.70;99.90;;;;;;5097093;27;20456;-80
2023/01/07 08:45:17;;;;;;;1.63;1.53;;;9.80;99.90;;;;;;5094161;27;20516;-79
2023/01/07 08:47:47;;;;;;;1.57;1.47;;;9.80;99.90;;;;;;5108320;27;20463;-80
2023/01/07 08:50:15;;;;;;;1.80;1.70;;;9.70;99.90;;;;;;5102662;27;20478;-80
2023/01/07 08:52:46;;;;;;;2.00;1.90;;;9.70;1.00;;;;;;5101412;27;20481;-79
2023/01/07 08:55:14;;;;;;;1.77;1.67;;;9.60;99.90;;;;;;5103667;27;20482;-80
2023/01/07 08:57:42;;;;;;;1.73;1.63;;;9.70;99.90;;;;;;5102759;28;20936;-79
2023/01/07 09:00:12;;;;;;;2.07;1.97;;;9.80;99.90;;;;;;5088805;28;20442;-79
2023/01/07 09:02:44;;;;;;;1.70;1.60;;;9.80;99.90;;;;;;5070970;28;20442;-79
2023/01/07 09:05:12;;;;;;;1.70;1.60;;;9.70;99.90;;;;;;5090677;28;20997;-80
2023/01/07 09:07:40;;;;;;;1.93;1.83;;;9.90;99.90;;;;;;5109479;28;20447;-79
2023/01/07 09:10:10;;;;;;;2.00;1.90;;;9.90;99.90;;;;;;5106800;28;20457;-80
2023/01/07 09:12:39;;;;;;;2.50;2.30;;;9.80;99.90;;;;;;5105057;28;20485;-80
2023/01/07 09:15:09;;;;;;;2.20;2.10;;;9.80;99.90;;;;;;5084609;28;21037;-79
2023/01/07 09:17:37;;;;;;;2.37;2.17;;;9.70;99.90;;;;;;5086616;28;20501;-80
2023/01/07 09:20:08;;;;;;;2.43;2.33;;;9.70;99.90;;;;;;5106337;28;20469;-78
2023/01/07 09:22:37;;;;;;;2.80;2.60;;;9.60;99.90;;;;;;5114246;28;20449;-80
2023/01/07 09:25:06;;;;;;;2.37;2.13;;;9.60;99.90;;;;;;5111472;28;20478;-79
2023/01/07 09:27:34;;;;;;;2.33;2.20;;;9.70;1.00;;;;;;5118988;28;20440;-79
2023/01/07 09:30:02;;;;;;;3.00;2.80;;;9.80;1.00;;;;;;5112123;28;20454;-79
2023/01/07 09:32:30;;;;;;;3.57;3.33;;;9.90;99.90;;;;;;5113327;28;20473;-79
2023/01/07 09:34:59;;;;;;;3.10;2.83;;;9.90;99.90;;;;;;5113510;28;20586;-79
2023/01/07 09:37:28;;;;;;;3.27;3.00;;;9.90;1.00;;;;;;5114039;28;20973;-79
2023/01/07 09:39:56;;;;;;;4.57;4.13;;;9.90;99.90;;;;;;5096350;28;21024;-79
2023/01/07 09:42:31;;;;;;;4.37;4.03;;;9.90;99.90;;;;;;5116401;28;20454;-79
2023/01/07 09:45:17;;;;;;;7.80;3.70;;;9.80;99.90;;;;;;5112037;28;20480;-79
2023/01/07 09:47:50;;;;;;;5.30;4.90;;;9.80;1.00;;;;;;5106085;28;20427;-79
2023/01/07 09:50:24;;;;;;;5.37;4.87;;;9.80;1.00;;;;;;5109529;28;20190;-79
2023/01/07 09:52:57;;;;;;;4.87;4.40;;;9.80;1.00;;;;;;5117663;28;20507;-79
2023/01/07 09:55:31;;;;;;;3.53;3.13;;;9.90;99.90;;;;;;5115720;28;20534;-78
2023/01/07 09:57:59;;;;;;;3.90;3.60;;;10.10;99.90;;;;;;5097739;28;20463;-79
2023/01/07 10:00:31;;;;;;;4.23;3.20;;;10.20;99.90;;;;;;5114926;28;20487;-79
2023/01/07 10:03:19;;;;;;;3.50;3.20;;;10.30;99.90;;;;;;5113638;28;20432;-80
2023/01/07 10:05:59;;;;;;;4.63;3.97;;;10.40;94.10;;;;;;5114494;28;20502;-79
2023/01/07 10:08:37;;;;;;;3.70;3.50;;;10.90;15.50;;;;;;5114721;28;20447;-79
2023/01/07 10:11:19;;;;;;;5.00;3.33;;;11.20;1.00;;;;;;5115568;28;20513;-80
2023/01/07 10:14:02;;;;;;;3.53;3.23;;;11.80;1.00;;;;;;5117005;28;20531;-80
2023/01/07 10:16:38;;;;;;;3.40;3.20;;;12.30;1.00;;;;;;5111604;28;20599;-80
2023/01/07 10:19:14;;;;;;;4.03;3.73;;;12.40;99.90;;;;;;5113038;27;21072;-79
2023/01/07 10:21:49;;;;;;;3.80;3.17;;;12.10;99.90;;;;;;5115629;27;20532;-79
2023/01/07 10:24:23;;;;;;;3.30;3.10;;;11.50;1.00;;;;;;5098398;27;20451;-80
2023/01/07 10:26:55;;;;;;;3.10;2.90;;;11.30;1.00;;;;;;5119458;27;20807;-79
2023/01/07 10:29:29;;;;;;;3.20;3.00;;;11.30;1.00;;;;;;5098547;27;20464;-80
2023/01/07 10:32:04;;;;;;;4.40;4.00;;;11.00;1.00;;;;;;5098544;27;20553;-80
2023/01/07 10:34:38;;;;;;;4.90;4.50;;;11.50;1.00;;;;;;5117547;27;20505;-79
2023/01/07 10:37:12;;;;;;;4.43;4.13;;;11.90;1.00;;;;;;5118287;27;20514;-79
2023/01/07 10:39:51;;;;;;;3.93;3.63;;;12.00;1.00;;;;;;5097502;27;20953;-79
2023/01/07 10:42:25;;;;;;;4.17;3.73;;;12.10;1.00;;;;;;5115990;27;20858;-79
2023/01/07 10:45:21;;;;;;;4.20;3.90;;;12.60;99.90;;;;;;5110315;27;21002;-80
2023/01/07 10:48:02;;;;;;;4.60;4.30;;;12.90;99.90;;;;;;5112689;27;20462;-79
2023/01/07 10:50:45;;;;;;;4.30;3.90;;;12.60;99.90;;;;;;5110164;27;20785;-79
2023/01/07 10:53:28;;;;;;;3.23;3.03;;;12.90;99.90;;;;;;5115644;27;20550;-78
2023/01/07 10:56:05;;;;;;;3.93;3.63;;;13.30;99.90;;;;;;5094130;27;21002;-79
2023/01/07 10:58:39;;;;;;;4.00;3.70;;;13.90;99.90;;;;;;5107402;27;20818;-80
2023/01/07 11:01:08;;;;;;;3.70;3.50;;;14.30;99.90;;;;;;5112042;27;20520;-80
2023/01/07 11:03:39;;;;;;;3.47;3.27;;;14.30;99.90;;;;;;5108775;27;20449;-78
2023/01/07 11:06:12;;;;;;;3.93;3.63;;;14.30;99.90;;;;;;5082079;27;20533;-81
2023/01/07 11:08:42;;;;;;;3.83;3.50;;;14.20;99.90;;;;;;5112189;27;20542;-76
2023/01/07 11:11:16;;;;;;;3.83;3.53;;;14.10;99.90;;;;;;5113656;27;20434;-78
2023/01/07 11:13:54;;;;;;;3.83;3.60;;;14.40;99.90;;;;;;5105182;27;20963;-75
2023/01/07 11:16:26;;;;;;;3.90;3.60;;;14.40;99.90;;;;;;5108991;27;20491;-77
2023/01/07 11:18:59;;;;;;;3.77;3.47;;;14.40;99.90;;;;;;5112954;27;20452;-76
2023/01/07 11:21:33;;;;;;;2.87;2.60;;;14.40;99.90;;;;;;5107713;27;21139;-77
2023/01/07 11:24:32;;;;;;;4.60;3.50;;;14.40;99.90;;;;;;5102307;27;20447;-76
2023/01/07 11:27:06;;;;;;;4.07;3.77;;;14.70;99.90;;;;;;5111038;27;20199;-76
2023/01/07 11:29:39;;;;;;;3.60;3.37;;;15.10;99.90;;;;;;5102071;27;20533;-76
2023/01/07 11:32:20;;;;;;;3.03;2.87;;;15.20;99.90;;;;;;5105439;27;21155;-76
2023/01/07 11:34:55;;;;;;;3.73;3.43;;;14.50;99.90;;;;;;5095895;27;20509;-77
2023/01/07 11:37:33;;;;;;;4.03;3.73;;;14.30;99.90;;;;;;5079840;28;20456;-78
2023/01/07 11:40:04;;;;;;;3.10;2.90;;;13.90;99.90;;;;;;5104713;27;21069;-80
2023/01/07 11:42:46;;;;;;;3.37;3.07;;;13.80;99.90;;;;;;5093888;27;20529;-79
2023/01/07 11:45:18;;;;;;;3.57;3.27;;;13.60;99.90;;;;;;5111249;27;20477;-80
2023/01/07 11:47:49;;;;;;;3.20;3.00;;;13.70;99.90;;;;;;5096463;27;20443;-80
2023/01/07 11:50:27;;;;;;;4.00;3.60;;;13.70;99.90;;;;;;5114997;27;20471;-80
2023/01/07 11:53:00;;;;;;;2.97;2.77;;;13.70;99.90;;;;;;5115489;27;20497;-80
2023/01/07 11:55:29;;;;;;;3.33;3.00;;;13.70;99.90;;;;;;5110091;27;20471;-79
2023/01/07 11:57:59;;;;;;;3.13;2.92;;;13.60;99.90;;;;;;5088923;28;20565;-79
2023/01/07 12:01:03;;;;;;;3.70;3.50;;;13.70;99.90;;;;;;5107889;27;20435;-82
2023/01/07 12:03:31;;;;;;;3.27;3.07;;;13.60;99.90;;;;;;5120716;27;20834;-81
2023/01/07 12:06:05;;;;;;;3.00;2.73;;;13.60;99.90;;;;;;5125236;27;20471;-83
2023/01/07 12:08:34;;;;;;;3.13;2.93;;;13.70;99.90;;;;;;5107831;28;20529;-84
2023/01/07 12:11:07;;;;;;;2.97;2.70;;;13.80;99.90;;;;;;5127391;27;20515;-83
2023/01/07 12:13:40;;;;;;;3.60;3.30;;;13.70;99.90;;;;;;5123045;27;20471;-85
2023/01/07 12:16:10;;;;;;;3.87;3.57;;;13.60;99.90;;;;;;5123042;27;20527;-83
2023/01/07 12:18:54;;;;;;;2.93;2.73;;;13.50;99.90;;;;;;5127510;27;20463;-85
2023/01/07 12:21:45;;;;;;;2.90;2.70;;;13.30;99.90;;;;;;5126134;27;20488;-83
2023/01/07 12:24:30;;;;;;;3.50;3.00;;;13.20;99.90;;;;;;5108358;27;20459;-82
2023/01/07 12:27:10;;;;;;;2.90;2.70;;;13.40;99.90;;;;;;5108082;27;20446;-83
2023/01/07 12:29:52;;;;;;;2.70;2.50;;;13.50;99.90;;;;;;5105269;27;20208;-81
2023/01/07 12:32:31;;;;;;;3.78;3.58;;;13.50;99.90;;;;;;5103333;27;20845;-78
2023/01/07 12:35:02;;;;;;;2.75;2.65;;;13.30;99.90;;;;;;5110581;27;20585;-77
2023/01/07 12:37:46;;;;;;;3.07;2.70;;;13.30;99.90;;;;;;5098637;27;20196;-77
2023/01/07 12:40:26;;;;;;;2.57;2.37;;;13.30;99.90;;;;;;5093865;27;20472;-75
2023/01/07 12:42:59;;;;;;;3.00;2.80;;;13.50;99.90;;;;;;5099576;27;20972;-76
2023/01/07 12:45:34;;;;;;;3.13;2.60;;;13.30;99.90;;;;;;5094559;27;21318;-75
2023/01/07 12:48:08;;;;;;;3.33;3.03;;;13.30;99.90;;;;;;5102029;27;20452;-75
2023/01/07 12:50:40;;;;;;;3.03;2.83;;;13.40;99.90;;;;;;5102984;27;20491;-76
2023/01/07 12:53:15;;;;;;;3.60;3.40;;;13.50;99.90;;;;;;5105269;27;21130;-76
2023/01/07 12:55:46;;;;;;;3.00;2.80;;;13.20;99.90;;;;;;5098701;28;20486;-75
2023/01/07 12:58:21;;;;;;;3.17;2.87;;;13.10;99.90;;;;;;5105625;27;20993;-77
2023/01/07 13:00:57;;;;;;;3.60;3.30;;;13.10;99.90;;;;;;5098351;28;20448;-78
2023/01/07 13:03:37;;;;;;;3.63;3.33;;;12.90;99.90;;;;;;5100599;28;20202;-79
2023/01/07 13:06:11;;;;;;;3.40;3.20;;;13.00;99.90;;;;;;5100562;28;20837;-76
2023/01/07 13:08:45;;;;;;;3.40;3.20;;;13.10;99.90;;;;;;5109827;28;20438;-76
2023/01/07 13:12:41;;;;;;;3.33;3.03;;;13.10;99.90;;;;;;5106338;28;20241;-76
2023/01/07 13:14:22;;;;;;;3.23;3.03;;;12.90;99.90;;;;;;5100310;28;20617;-76
2023/01/07 13:16:51;;;;;;;4.03;3.60;;;13.00;99.90;;;;;;5102313;28;20461;-76
2023/01/07 13:19:19;;;;;;;2.47;2.37;;;13.10;99.90;;;;;;5105696;28;20453;-78
2023/01/07 13:21:49;;;;;;;3.20;3.00;;;13.30;99.90;;;;;;5112285;28;20833;-77
2023/01/07 13:24:32;;;;;;;2.83;2.63;;;13.30;99.90;;;;;;5098431;28;20503;-78